sensor_id;sensor_type;location;lat;lon;timestamp;temperature;humidity
774;DHT22;370;48.810;9.150;2023-12-14T00:01:43;7.50;55.80
774;DHT22;370;48.810;9.150;2023-12-14T00:04:11;7.50;54.90
774;DHT22;370;48.810;9.150;2023-12-14T00:06:38;7.50;54.70
774;DHT22;370;48.810;9.150;2023-12-14T00:09:06;7.50;55.30
774;DHT22;370;48.810;9.150;2023-12-14T00:11:37;7.60;55.30
774;DHT22;370;48.810;9.150;2023-12-14T00:14:04;7.60;54.90
774;DHT22;370;48.810;9.150;2023-12-14T00:16:31;7.60;54.80
774;DHT22;370;48.810;9.150;2023-12-14T00:18:58;7.50;54.40
774;DHT22;370;48.810;9.150;2023-12-14T00:21:25;7.50;54.30
774;DHT22;370;48.810;9.150;2023-12-14T00:23:52;7.40;53.20
774;DHT22;370;48.810;9.150;2023-12-14T00:26:20;7.40;55.30
774;DHT22;370;48.810;9.150;2023-12-14T00:28:46;7.30;54.00
774;DHT22;370;48.810;9.150;2023-12-14T00:31:13;7.20;54.40
774;DHT22;370;48.810;9.150;2023-12-14T00:33:40;7.10;54.30
774;DHT22;370;48.810;9.150;2023-12-14T00:36:07;7.00;54.90
774;DHT22;370;48.810;9.150;2023-12-14T00:38:34;7.10;57.20
774;DHT22;370;48.810;9.150;2023-12-14T00:41:01;7.20;58.80
774;DHT22;370;48.810;9.150;2023-12-14T00:43:29;7.30;58.90
774;DHT22;370;48.810;9.150;2023-12-14T00:45:56;7.40;59.00
774;DHT22;370;48.810;9.150;2023-12-14T00:48:22;7.40;57.70
774;DHT22;370;48.810;9.150;2023-12-14T00:50:49;7.40;57.40
774;DHT22;370;48.810;9.150;2023-12-14T00:53:16;7.50;57.20
774;DHT22;370;48.810;9.150;2023-12-14T00:55:43;7.50;56.90
774;DHT22;370;48.810;9.150;2023-12-14T00:58:11;7.60;55.80
774;DHT22;370;48.810;9.150;2023-12-14T01:00:41;7.60;55.70
774;DHT22;370;48.810;9.150;2023-12-14T01:03:08;7.70;54.50
774;DHT22;370;48.810;9.150;2023-12-14T01:05:34;7.70;53.90
774;DHT22;370;48.810;9.150;2023-12-14T01:08:01;7.70;53.70
774;DHT22;370;48.810;9.150;2023-12-14T01:10:28;7.70;52.60
774;DHT22;370;48.810;9.150;2023-12-14T01:12:55;7.50;51.90
774;DHT22;370;48.810;9.150;2023-12-14T01:15:21;7.40;52.90
774;DHT22;370;48.810;9.150;2023-12-14T01:17:49;7.30;53.20
774;DHT22;370;48.810;9.150;2023-12-14T01:20:16;7.20;52.90
774;DHT22;370;48.810;9.150;2023-12-14T01:22:43;7.10;52.40
774;DHT22;370;48.810;9.150;2023-12-14T01:25:10;7.00;54.50
774;DHT22;370;48.810;9.150;2023-12-14T01:27:36;7.00;55.10
774;DHT22;370;48.810;9.150;2023-12-14T01:30:04;7.00;55.10
774;DHT22;370;48.810;9.150;2023-12-14T01:32:31;7.00;55.20
774;DHT22;370;48.810;9.150;2023-12-14T01:34:59;7.00;55.00
774;DHT22;370;48.810;9.150;2023-12-14T01:37:26;7.00;55.10
774;DHT22;370;48.810;9.150;2023-12-14T01:39:53;7.00;54.10
774;DHT22;370;48.810;9.150;2023-12-14T01:42:19;7.00;54.00
774;DHT22;370;48.810;9.150;2023-12-14T01:44:46;7.00;55.30
774;DHT22;370;48.810;9.150;2023-12-14T01:47:13;7.10;55.00
774;DHT22;370;48.810;9.150;2023-12-14T01:49:39;7.10;54.70
774;DHT22;370;48.810;9.150;2023-12-14T01:52:09;7.10;54.90
774;DHT22;370;48.810;9.150;2023-12-14T01:54:36;7.10;55.50
774;DHT22;370;48.810;9.150;2023-12-14T01:57:03;7.10;55.20
774;DHT22;370;48.810;9.150;2023-12-14T01:59:29;7.10;54.90
774;DHT22;370;48.810;9.150;2023-12-14T02:01:56;7.10;54.40
774;DHT22;370;48.810;9.150;2023-12-14T02:04:26;7.10;54.50
774;DHT22;370;48.810;9.150;2023-12-14T02:06:53;7.20;54.20
774;DHT22;370;48.810;9.150;2023-12-14T02:09:21;7.20;54.00
774;DHT22;370;48.810;9.150;2023-12-14T02:15:10;7.10;53.10
774;DHT22;370;48.810;9.150;2023-12-14T02:17:36;7.20;54.00
774;DHT22;370;48.810;9.150;2023-12-14T02:20:04;7.20;53.50
774;DHT22;370;48.810;9.150;2023-12-14T02:22:36;7.20;54.60
774;DHT22;370;48.810;9.150;2023-12-14T02:25:14;7.30;54.00
774;DHT22;370;48.810;9.150;2023-12-14T02:27:41;7.30;54.00
774;DHT22;370;48.810;9.150;2023-12-14T02:30:08;7.30;54.10
774;DHT22;370;48.810;9.150;2023-12-14T02:32:35;7.30;53.10
774;DHT22;370;48.810;9.150;2023-12-14T02:35:02;7.30;53.10
774;DHT22;370;48.810;9.150;2023-12-14T02:37:28;7.20;52.00
774;DHT22;370;48.810;9.150;2023-12-14T02:39:57;7.20;53.10
774;DHT22;370;48.810;9.150;2023-12-14T02:42:24;7.30;52.90
774;DHT22;370;48.810;9.150;2023-12-14T02:44:51;7.20;51.00
774;DHT22;370;48.810;9.150;2023-12-14T02:47:19;7.10;52.60
774;DHT22;370;48.810;9.150;2023-12-14T02:49:46;7.20;55.90
774;DHT22;370;48.810;9.150;2023-12-14T02:52:12;7.30;55.20
774;DHT22;370;48.810;9.150;2023-12-14T02:54:39;7.40;53.40
774;DHT22;370;48.810;9.150;2023-12-14T02:57:07;7.40;52.00
774;DHT22;370;48.810;9.150;2023-12-14T02:59:34;7.50;50.80
774;DHT22;370;48.810;9.150;2023-12-14T03:02:01;7.50;51.70
774;DHT22;370;48.810;9.150;2023-12-14T03:04:27;7.60;51.30
774;DHT22;370;48.810;9.150;2023-12-14T03:06:54;7.60;50.60
774;DHT22;370;48.810;9.150;2023-12-14T03:09:21;7.60;49.60
774;DHT22;370;48.810;9.150;2023-12-14T03:11:48;7.70;49.30
774;DHT22;370;48.810;9.150;2023-12-14T03:14:16;7.70;48.90
774;DHT22;370;48.810;9.150;2023-12-14T03:16:43;7.70;49.30
774;DHT22;370;48.810;9.150;2023-12-14T03:19:09;7.70;49.10
774;DHT22;370;48.810;9.150;2023-12-14T03:21:36;7.70;46.50
774;DHT22;370;48.810;9.150;2023-12-14T03:24:03;7.80;47.00
774;DHT22;370;48.810;9.150;2023-12-14T03:26:30;7.80;47.20
774;DHT22;370;48.810;9.150;2023-12-14T03:28:57;7.80;46.20
774;DHT22;370;48.810;9.150;2023-12-14T03:31:25;7.80;45.40
774;DHT22;370;48.810;9.150;2023-12-14T03:33:51;7.80;43.80
774;DHT22;370;48.810;9.150;2023-12-14T03:36:18;7.80;43.10
774;DHT22;370;48.810;9.150;2023-12-14T03:38:45;7.80;41.70
774;DHT22;370;48.810;9.150;2023-12-14T03:41:12;7.90;39.90
774;DHT22;370;48.810;9.150;2023-12-14T03:43:39;7.90;39.90
774;DHT22;370;48.810;9.150;2023-12-14T03:46:06;7.90;40.60
774;DHT22;370;48.810;9.150;2023-12-14T03:48:34;7.90;40.80
774;DHT22;370;48.810;9.150;2023-12-14T03:51:02;7.90;39.90
774;DHT22;370;48.810;9.150;2023-12-14T03:53:29;7.90;40.00
774;DHT22;370;48.810;9.150;2023-12-14T03:55:57;7.90;40.90
774;DHT22;370;48.810;9.150;2023-12-14T03:58:24;7.80;41.30
774;DHT22;370;48.810;9.150;2023-12-14T04:00:51;7.90;40.00
774;DHT22;370;48.810;9.150;2023-12-14T04:03:17;7.90;39.90
774;DHT22;370;48.810;9.150;2023-12-14T04:05:45;7.80;38.40
774;DHT22;370;48.810;9.150;2023-12-14T04:08:12;7.80;39.30
774;DHT22;370;48.810;9.150;2023-12-14T04:10:39;7.80;37.20
774;DHT22;370;48.810;9.150;2023-12-14T04:13:05;7.70;36.20
774;DHT22;370;48.810;9.150;2023-12-14T04:15:32;7.70;37.60
774;DHT22;370;48.810;9.150;2023-12-14T04:17:59;7.70;39.30
774;DHT22;370;48.810;9.150;2023-12-14T04:20:25;7.70;38.70
774;DHT22;370;48.810;9.150;2023-12-14T04:22:54;7.70;38.10
774;DHT22;370;48.810;9.150;2023-12-14T04:25:21;7.70;39.80
774;DHT22;370;48.810;9.150;2023-12-14T04:27:48;7.70;39.00
774;DHT22;370;48.810;9.150;2023-12-14T04:30:14;7.60;38.60
774;DHT22;370;48.810;9.150;2023-12-14T04:32:41;7.70;39.80
774;DHT22;370;48.810;9.150;2023-12-14T04:35:08;7.70;39.70
774;DHT22;370;48.810;9.150;2023-12-14T04:37:35;7.80;39.80
774;DHT22;370;48.810;9.150;2023-12-14T04:40:04;7.80;39.40
774;DHT22;370;48.810;9.150;2023-12-14T04:42:31;7.80;39.80
774;DHT22;370;48.810;9.150;2023-12-14T04:44:57;7.80;38.90
774;DHT22;370;48.810;9.150;2023-12-14T04:47:24;7.80;37.70
774;DHT22;370;48.810;9.150;2023-12-14T04:49:51;7.80;37.20
774;DHT22;370;48.810;9.150;2023-12-14T04:52:18;7.90;36.30
774;DHT22;370;48.810;9.150;2023-12-14T04:54:45;7.80;38.00
774;DHT22;370;48.810;9.150;2023-12-14T04:57:13;7.90;38.00
774;DHT22;370;48.810;9.150;2023-12-14T04:59:41;7.90;38.10
774;DHT22;370;48.810;9.150;2023-12-14T05:02:08;8.00;37.50
774;DHT22;370;48.810;9.150;2023-12-14T05:04:34;8.00;36.90
774;DHT22;370;48.810;9.150;2023-12-14T05:07:01;7.90;37.20
774;DHT22;370;48.810;9.150;2023-12-14T05:09:28;8.00;37.70
774;DHT22;370;48.810;9.150;2023-12-14T05:11:54;8.00;35.80
774;DHT22;370;48.810;9.150;2023-12-14T05:14:22;8.00;35.70
774;DHT22;370;48.810;9.150;2023-12-14T05:16:50;8.10;35.50
774;DHT22;370;48.810;9.150;2023-12-14T05:19:16;8.10;33.60
774;DHT22;370;48.810;9.150;2023-12-14T05:21:44;8.10;32.40
774;DHT22;370;48.810;9.150;2023-12-14T05:24:10;8.20;32.90
774;DHT22;370;48.810;9.150;2023-12-14T05:26:37;8.20;32.20
774;DHT22;370;48.810;9.150;2023-12-14T05:29:04;8.20;32.20
774;DHT22;370;48.810;9.150;2023-12-14T05:31:32;8.30;32.30
774;DHT22;370;48.810;9.150;2023-12-14T05:33:59;8.30;31.80
774;DHT22;370;48.810;9.150;2023-12-14T05:36:26;8.30;31.00
774;DHT22;370;48.810;9.150;2023-12-14T05:38:52;8.30;30.00
774;DHT22;370;48.810;9.150;2023-12-14T05:41:19;8.30;28.80
774;DHT22;370;48.810;9.150;2023-12-14T05:43:45;8.30;29.40
774;DHT22;370;48.810;9.150;2023-12-14T05:46:20;8.30;30.00
774;DHT22;370;48.810;9.150;2023-12-14T05:48:48;8.30;29.40
774;DHT22;370;48.810;9.150;2023-12-14T05:51:26;8.20;30.00
774;DHT22;370;48.810;9.150;2023-12-14T05:53:53;8.20;32.30
774;DHT22;370;48.810;9.150;2023-12-14T05:56:20;8.10;32.70
774;DHT22;370;48.810;9.150;2023-12-14T05:58:47;8.20;32.60
774;DHT22;370;48.810;9.150;2023-12-14T06:01:16;8.10;33.30
774;DHT22;370;48.810;9.150;2023-12-14T06:03:42;8.10;33.60
774;DHT22;370;48.810;9.150;2023-12-14T06:06:10;8.00;35.90
774;DHT22;370;48.810;9.150;2023-12-14T06:08:38;7.90;36.70
774;DHT22;370;48.810;9.150;2023-12-14T06:11:05;7.90;38.00
774;DHT22;370;48.810;9.150;2023-12-14T06:13:32;8.00;38.90
774;DHT22;370;48.810;9.150;2023-12-14T06:15:59;8.00;39.20
774;DHT22;370;48.810;9.150;2023-12-14T06:18:26;8.00;40.00
774;DHT22;370;48.810;9.150;2023-12-14T06:20:52;8.10;39.10
774;DHT22;370;48.810;9.150;2023-12-14T06:23:20;8.10;38.60
774;DHT22;370;48.810;9.150;2023-12-14T06:25:47;8.10;37.70
774;DHT22;370;48.810;9.150;2023-12-14T06:28:14;8.10;37.00
774;DHT22;370;48.810;9.150;2023-12-14T06:30:40;8.10;36.90
774;DHT22;370;48.810;9.150;2023-12-14T06:33:07;8.10;38.10
774;DHT22;370;48.810;9.150;2023-12-14T06:35:34;8.10;37.50
774;DHT22;370;48.810;9.150;2023-12-14T06:38:00;8.10;36.70
774;DHT22;370;48.810;9.150;2023-12-14T06:40:28;8.10;36.40
774;DHT22;370;48.810;9.150;2023-12-14T06:42:55;8.00;37.40
774;DHT22;370;48.810;9.150;2023-12-14T06:45:21;7.90;40.80
774;DHT22;370;48.810;9.150;2023-12-14T06:47:48;8.00;40.00
774;DHT22;370;48.810;9.150;2023-12-14T06:50:15;8.10;40.10
774;DHT22;370;48.810;9.150;2023-12-14T06:52:42;8.00;41.20
774;DHT22;370;48.810;9.150;2023-12-14T06:55:08;8.00;41.90
774;DHT22;370;48.810;9.150;2023-12-14T06:57:37;8.10;40.80
774;DHT22;370;48.810;9.150;2023-12-14T07:00:05;8.20;40.80
774;DHT22;370;48.810;9.150;2023-12-14T07:02:32;8.20;40.10
774;DHT22;370;48.810;9.150;2023-12-14T07:04:58;8.20;40.10
774;DHT22;370;48.810;9.150;2023-12-14T07:07:25;8.30;40.20
774;DHT22;370;48.810;9.150;2023-12-14T07:09:52;8.20;40.20
774;DHT22;370;48.810;9.150;2023-12-14T07:12:18;8.30;40.20
774;DHT22;370;48.810;9.150;2023-12-14T07:14:46;8.30;38.70
774;DHT22;370;48.810;9.150;2023-12-14T07:17:13;8.30;39.10
774;DHT22;370;48.810;9.150;2023-12-14T07:19:40;8.40;36.70
774;DHT22;370;48.810;9.150;2023-12-14T07:22:06;8.30;37.70
774;DHT22;370;48.810;9.150;2023-12-14T07:24:33;8.30;37.80
774;DHT22;370;48.810;9.150;2023-12-14T07:27:00;8.30;36.90
774;DHT22;370;48.810;9.150;2023-12-14T07:29:26;8.40;37.30
774;DHT22;370;48.810;9.150;2023-12-14T07:31:54;8.40;35.60
774;DHT22;370;48.810;9.150;2023-12-14T07:34:21;8.40;37.00
774;DHT22;370;48.810;9.150;2023-12-14T07:36:50;8.30;39.00
774;DHT22;370;48.810;9.150;2023-12-14T07:39:16;8.30;40.30
774;DHT22;370;48.810;9.150;2023-12-14T07:41:44;8.40;41.70
774;DHT22;370;48.810;9.150;2023-12-14T07:44:11;8.40;39.40
774;DHT22;370;48.810;9.150;2023-12-14T07:46:37;8.50;37.90
774;DHT22;370;48.810;9.150;2023-12-14T07:49:08;8.40;37.20
774;DHT22;370;48.810;9.150;2023-12-14T07:51:34;8.20;36.60
774;DHT22;370;48.810;9.150;2023-12-14T07:54:01;8.10;38.90
774;DHT22;370;48.810;9.150;2023-12-14T07:56:29;8.20;40.20
774;DHT22;370;48.810;9.150;2023-12-14T07:58:58;8.30;39.40
774;DHT22;370;48.810;9.150;2023-12-14T08:01:24;8.40;39.60
774;DHT22;370;48.810;9.150;2023-12-14T08:03:51;8.50;41.10
774;DHT22;370;48.810;9.150;2023-12-14T08:06:19;8.70;40.60
774;DHT22;370;48.810;9.150;2023-12-14T08:08:46;8.90;39.00
774;DHT22;370;48.810;9.150;2023-12-14T08:11:12;9.10;36.60
774;DHT22;370;48.810;9.150;2023-12-14T08:13:39;9.30;32.00
774;DHT22;370;48.810;9.150;2023-12-14T08:16:06;9.30;31.30
774;DHT22;370;48.810;9.150;2023-12-14T08:18:33;9.30;30.00
774;DHT22;370;48.810;9.150;2023-12-14T08:21:01;9.30;28.30
774;DHT22;370;48.810;9.150;2023-12-14T08:23:29;9.30;25.80
774;DHT22;370;48.810;9.150;2023-12-14T08:25:56;9.30;25.10
774;DHT22;370;48.810;9.150;2023-12-14T08:28:23;9.40;23.70
774;DHT22;370;48.810;9.150;2023-12-14T08:30:49;9.30;24.10
774;DHT22;370;48.810;9.150;2023-12-14T08:33:16;9.30;23.90
774;DHT22;370;48.810;9.150;2023-12-14T08:35:43;9.20;23.30
774;DHT22;370;48.810;9.150;2023-12-14T08:38:10;9.10;23.20
774;DHT22;370;48.810;9.150;2023-12-14T08:40:39;9.00;23.70
774;DHT22;370;48.810;9.150;2023-12-14T08:43:06;8.90;24.30
774;DHT22;370;48.810;9.150;2023-12-14T08:45:33;8.90;26.30
774;DHT22;370;48.810;9.150;2023-12-14T08:47:59;9.10;30.10
774;DHT22;370;48.810;9.150;2023-12-14T08:50:26;9.30;29.70
774;DHT22;370;48.810;9.150;2023-12-14T08:52:53;9.50;26.80
774;DHT22;370;48.810;9.150;2023-12-14T08:55:19;9.60;25.50
774;DHT22;370;48.810;9.150;2023-12-14T08:57:48;9.80;24.70
774;DHT22;370;48.810;9.150;2023-12-14T09:00:16;9.90;22.90
774;DHT22;370;48.810;9.150;2023-12-14T09:02:43;9.80;20.20
774;DHT22;370;48.810;9.150;2023-12-14T09:05:11;9.80;21.10
774;DHT22;370;48.810;9.150;2023-12-14T09:07:38;9.80;21.00
774;DHT22;370;48.810;9.150;2023-12-14T09:10:06;9.90;21.40
774;DHT22;370;48.810;9.150;2023-12-14T09:12:33;10.00;17.90
774;DHT22;370;48.810;9.150;2023-12-14T09:15:02;10.10;19.70
774;DHT22;370;48.810;9.150;2023-12-14T09:17:30;10.20;20.10
774;DHT22;370;48.810;9.150;2023-12-14T09:19:58;10.30;19.80
774;DHT22;370;48.810;9.150;2023-12-14T09:22:25;10.50;20.00
774;DHT22;370;48.810;9.150;2023-12-14T09:24:52;10.60;18.20
774;DHT22;370;48.810;9.150;2023-12-14T09:27:19;10.60;16.00
774;DHT22;370;48.810;9.150;2023-12-14T09:29:46;10.70;14.30
774;DHT22;370;48.810;9.150;2023-12-14T09:32:14;10.80;15.20
774;DHT22;370;48.810;9.150;2023-12-14T09:34:42;10.80;12.40
774;DHT22;370;48.810;9.150;2023-12-14T09:37:09;10.80;12.40
774;DHT22;370;48.810;9.150;2023-12-14T09:39:36;11.00;13.70
774;DHT22;370;48.810;9.150;2023-12-14T09:42:04;10.90;13.30
774;DHT22;370;48.810;9.150;2023-12-14T09:44:31;10.90;12.80
774;DHT22;370;48.810;9.150;2023-12-14T09:46:59;10.80;13.10
774;DHT22;370;48.810;9.150;2023-12-14T09:49:27;10.80;9.10
774;DHT22;370;48.810;9.150;2023-12-14T09:51:55;10.90;9.60
774;DHT22;370;48.810;9.150;2023-12-14T09:54:22;11.20;12.30
774;DHT22;370;48.810;9.150;2023-12-14T09:56:49;12.10;4.90
774;DHT22;370;48.810;9.150;2023-12-14T09:59:18;12.80;5.30
774;DHT22;370;48.810;9.150;2023-12-14T10:01:45;13.80;1.00
774;DHT22;370;48.810;9.150;2023-12-14T10:04:13;14.30;1.00
774;DHT22;370;48.810;9.150;2023-12-14T10:06:44;14.50;1.00
774;DHT22;370;48.810;9.150;2023-12-14T10:09:11;14.50;1.00
774;DHT22;370;48.810;9.150;2023-12-14T10:11:40;14.50;1.00
774;DHT22;370;48.810;9.150;2023-12-14T10:14:18;14.30;1.00
774;DHT22;370;48.810;9.150;2023-12-14T10:16:46;14.10;1.00
774;DHT22;370;48.810;9.150;2023-12-14T10:19:13;14.00;1.00
774;DHT22;370;48.810;9.150;2023-12-14T10:21:41;14.00;1.00
774;DHT22;370;48.810;9.150;2023-12-14T10:24:08;14.00;1.00
774;DHT22;370;48.810;9.150;2023-12-14T10:26:35;14.00;1.00
774;DHT22;370;48.810;9.150;2023-12-14T10:29:02;14.10;1.00
774;DHT22;370;48.810;9.150;2023-12-14T10:31:30;14.20;1.00
774;DHT22;370;48.810;9.150;2023-12-14T10:33:57;14.20;1.00
774;DHT22;370;48.810;9.150;2023-12-14T10:36:25;14.00;1.00
774;DHT22;370;48.810;9.150;2023-12-14T10:38:57;13.80;1.00
774;DHT22;370;48.810;9.150;2023-12-14T10:41:24;13.60;1.00
774;DHT22;370;48.810;9.150;2023-12-14T10:47:13;12.60;1.00
774;DHT22;370;48.810;9.150;2023-12-14T10:49:41;12.10;1.00
774;DHT22;370;48.810;9.150;2023-12-14T10:52:09;11.90;1.00
774;DHT22;370;48.810;9.150;2023-12-14T10:54:38;11.80;1.00
774;DHT22;370;48.810;9.150;2023-12-14T10:57:06;11.90;1.00
774;DHT22;370;48.810;9.150;2023-12-14T10:59:34;11.90;1.00
774;DHT22;370;48.810;9.150;2023-12-14T11:02:06;11.90;1.00
774;DHT22;370;48.810;9.150;2023-12-14T11:04:53;11.80;1.00
774;DHT22;370;48.810;9.150;2023-12-14T11:07:45;11.50;1.00
774;DHT22;370;48.810;9.150;2023-12-14T11:10:14;11.40;1.00
774;DHT22;370;48.810;9.150;2023-12-14T11:12:52;11.30;2.20
774;DHT22;370;48.810;9.150;2023-12-14T11:15:21;11.30;2.10
774;DHT22;370;48.810;9.150;2023-12-14T11:18:20;11.30;1.00
774;DHT22;370;48.810;9.150;2023-12-14T11:20:48;11.20;2.30
774;DHT22;370;48.810;9.150;2023-12-14T11:23:16;11.30;1.60
774;DHT22;370;48.810;9.150;2023-12-14T11:25:48;11.30;1.00
774;DHT22;370;48.810;9.150;2023-12-14T11:28:15;11.40;1.00
774;DHT22;370;48.810;9.150;2023-12-14T11:30:43;11.40;1.00
774;DHT22;370;48.810;9.150;2023-12-14T11:33:11;11.70;1.00
774;DHT22;370;48.810;9.150;2023-12-14T11:35:38;12.10;1.00
774;DHT22;370;48.810;9.150;2023-12-14T11:38:05;12.10;1.00
774;DHT22;370;48.810;9.150;2023-12-14T11:40:38;11.90;1.00
774;DHT22;370;48.810;9.150;2023-12-14T11:43:07;11.90;1.00
774;DHT22;370;48.810;9.150;2023-12-14T11:45:35;11.90;1.00
774;DHT22;370;48.810;9.150;2023-12-14T11:48:02;11.80;1.00
774;DHT22;370;48.810;9.150;2023-12-14T11:50:31;11.80;1.00
774;DHT22;370;48.810;9.150;2023-12-14T11:52:59;11.70;1.00
774;DHT22;370;48.810;9.150;2023-12-14T11:55:26;11.50;1.00
774;DHT22;370;48.810;9.150;2023-12-14T11:57:53;11.60;1.00
774;DHT22;370;48.810;9.150;2023-12-14T12:00:25;11.90;1.00
774;DHT22;370;48.810;9.150;2023-12-14T12:02:52;12.60;1.00
774;DHT22;370;48.810;9.150;2023-12-14T12:05:36;13.80;1.00
774;DHT22;370;48.810;9.150;2023-12-14T12:08:03;14.50;1.00
774;DHT22;370;48.810;9.150;2023-12-14T12:10:30;14.50;1.00
774;DHT22;370;48.810;9.150;2023-12-14T12:16:21;14.80;1.00
774;DHT22;370;48.810;9.150;2023-12-14T12:18:48;14.40;1.00
774;DHT22;370;48.810;9.150;2023-12-14T12:21:16;13.70;1.00
774;DHT22;370;48.810;9.150;2023-12-14T12:27:05;12.50;1.00
774;DHT22;370;48.810;9.150;2023-12-14T12:29:33;12.10;1.00
774;DHT22;370;48.810;9.150;2023-12-14T12:32:01;11.90;1.00
774;DHT22;370;48.810;9.150;2023-12-14T12:34:27;11.60;1.00
774;DHT22;370;48.810;9.150;2023-12-14T12:36:54;11.50;1.00
774;DHT22;370;48.810;9.150;2023-12-14T12:39:23;11.40;1.00
774;DHT22;370;48.810;9.150;2023-12-14T12:41:49;11.30;1.00
774;DHT22;370;48.810;9.150;2023-12-14T12:44:16;11.20;1.00
774;DHT22;370;48.810;9.150;2023-12-14T12:46:43;11.10;1.00
774;DHT22;370;48.810;9.150;2023-12-14T12:49:11;10.90;1.00
774;DHT22;370;48.810;9.150;2023-12-14T12:51:38;10.90;1.00
774;DHT22;370;48.810;9.150;2023-12-14T12:54:05;11.00;1.00
774;DHT22;370;48.810;9.150;2023-12-14T12:56:31;11.00;1.00
774;DHT22;370;48.810;9.150;2023-12-14T12:58:59;11.10;1.00
774;DHT22;370;48.810;9.150;2023-12-14T13:01:26;11.10;1.00
774;DHT22;370;48.810;9.150;2023-12-14T13:03:54;11.00;1.00
774;DHT22;370;48.810;9.150;2023-12-14T13:06:23;10.80;1.00
774;DHT22;370;48.810;9.150;2023-12-14T13:08:50;10.40;1.00
774;DHT22;370;48.810;9.150;2023-12-14T13:11:17;10.10;1.40
774;DHT22;370;48.810;9.150;2023-12-14T13:13:43;9.90;4.80
774;DHT22;370;48.810;9.150;2023-12-14T13:16:10;9.80;10.50
774;DHT22;370;48.810;9.150;2023-12-14T13:18:38;9.70;11.50
774;DHT22;370;48.810;9.150;2023-12-14T13:21:05;9.60;13.70
774;DHT22;370;48.810;9.150;2023-12-14T13:23:34;9.50;14.20
774;DHT22;370;48.810;9.150;2023-12-14T13:26:01;9.40;14.90
774;DHT22;370;48.810;9.150;2023-12-14T13:28:27;9.20;15.30
774;DHT22;370;48.810;9.150;2023-12-14T13:30:54;9.10;19.50
774;DHT22;370;48.810;9.150;2023-12-14T13:33:21;9.00;21.80
774;DHT22;370;48.810;9.150;2023-12-14T13:35:48;8.90;23.10
774;DHT22;370;48.810;9.150;2023-12-14T13:38:15;8.90;26.60
774;DHT22;370;48.810;9.150;2023-12-14T13:40:43;8.90;25.10
774;DHT22;370;48.810;9.150;2023-12-14T13:43:10;8.90;24.50
774;DHT22;370;48.810;9.150;2023-12-14T13:45:37;8.70;22.70
774;DHT22;370;48.810;9.150;2023-12-14T13:48:04;8.60;25.60
774;DHT22;370;48.810;9.150;2023-12-14T13:50:32;8.50;26.10
774;DHT22;370;48.810;9.150;2023-12-14T13:52:59;8.50;26.20
774;DHT22;370;48.810;9.150;2023-12-14T13:55:27;8.50;28.60
774;DHT22;370;48.810;9.150;2023-12-14T13:57:55;8.50;27.30
774;DHT22;370;48.810;9.150;2023-12-14T14:00:23;8.50;24.30
774;DHT22;370;48.810;9.150;2023-12-14T14:02:50;8.40;27.30
774;DHT22;370;48.810;9.150;2023-12-14T14:05:17;8.40;24.10
774;DHT22;370;48.810;9.150;2023-12-14T14:07:44;8.30;24.80
774;DHT22;370;48.810;9.150;2023-12-14T14:10:11;8.20;24.80
774;DHT22;370;48.810;9.150;2023-12-14T14:12:37;8.20;24.80
774;DHT22;370;48.810;9.150;2023-12-14T14:15:07;8.20;26.40
774;DHT22;370;48.810;9.150;2023-12-14T14:17:34;8.10;28.30
774;DHT22;370;48.810;9.150;2023-12-14T14:20:01;8.20;28.10
774;DHT22;370;48.810;9.150;2023-12-14T14:22:27;8.10;27.70
774;DHT22;370;48.810;9.150;2023-12-14T14:24:55;8.20;30.00
774;DHT22;370;48.810;9.150;2023-12-14T14:27:22;8.10;29.50
774;DHT22;370;48.810;9.150;2023-12-14T14:29:49;8.30;40.20
774;DHT22;370;48.810;9.150;2023-12-14T14:32:20;8.30;30.40
774;DHT22;370;48.810;9.150;2023-12-14T14:34:47;8.30;28.30
774;DHT22;370;48.810;9.150;2023-12-14T14:37:13;8.30;28.30
774;DHT22;370;48.810;9.150;2023-12-14T14:39:40;8.20;31.20
774;DHT22;370;48.810;9.150;2023-12-14T14:42:08;8.20;30.90
774;DHT22;370;48.810;9.150;2023-12-14T14:44:35;8.20;31.90
774;DHT22;370;48.810;9.150;2023-12-14T14:47:02;8.20;31.80
774;DHT22;370;48.810;9.150;2023-12-14T14:49:31;8.20;31.70
774;DHT22;370;48.810;9.150;2023-12-14T14:51:57;8.20;34.50
774;DHT22;370;48.810;9.150;2023-12-14T14:54:24;8.20;34.50
774;DHT22;370;48.810;9.150;2023-12-14T14:56:51;8.20;35.70
774;DHT22;370;48.810;9.150;2023-12-14T14:59:18;8.30;34.40
774;DHT22;370;48.810;9.150;2023-12-14T15:01:45;8.30;34.80
774;DHT22;370;48.810;9.150;2023-12-14T15:04:12;8.30;34.00
774;DHT22;370;48.810;9.150;2023-12-14T15:06:40;8.40;33.70
774;DHT22;370;48.810;9.150;2023-12-14T15:09:07;8.40;31.30
774;DHT22;370;48.810;9.150;2023-12-14T15:11:34;8.40;32.10
774;DHT22;370;48.810;9.150;2023-12-14T15:14:01;8.40;32.30
774;DHT22;370;48.810;9.150;2023-12-14T15:16:27;8.40;32.00
774;DHT22;370;48.810;9.150;2023-12-14T15:18:54;8.40;32.70
774;DHT22;370;48.810;9.150;2023-12-14T15:21:21;8.40;32.40
774;DHT22;370;48.810;9.150;2023-12-14T15:23:49;8.40;32.60
774;DHT22;370;48.810;9.150;2023-12-14T15:26:16;8.40;32.50
774;DHT22;370;48.810;9.150;2023-12-14T15:28:43;8.50;31.80
774;DHT22;370;48.810;9.150;2023-12-14T15:31:09;8.50;30.30
774;DHT22;370;48.810;9.150;2023-12-14T15:33:37;8.50;30.60
774;DHT22;370;48.810;9.150;2023-12-14T15:36:04;8.50;30.90
774;DHT22;370;48.810;9.150;2023-12-14T15:38:31;8.50;30.10
774;DHT22;370;48.810;9.150;2023-12-14T15:40:59;8.50;30.10
774;DHT22;370;48.810;9.150;2023-12-14T15:43:26;8.50;30.10
774;DHT22;370;48.810;9.150;2023-12-14T15:45:52;8.50;30.10
774;DHT22;370;48.810;9.150;2023-12-14T15:48:19;8.50;30.20
774;DHT22;370;48.810;9.150;2023-12-14T15:50:46;8.40;30.10
774;DHT22;370;48.810;9.150;2023-12-14T15:53:12;8.40;31.20
774;DHT22;370;48.810;9.150;2023-12-14T15:59:03;8.40;30.10
774;DHT22;370;48.810;9.150;2023-12-14T16:01:32;8.20;30.70
774;DHT22;370;48.810;9.150;2023-12-14T16:04:02;8.20;32.10
774;DHT22;370;48.810;9.150;2023-12-14T16:06:29;8.20;32.70
774;DHT22;370;48.810;9.150;2023-12-14T16:08:56;8.10;33.70
774;DHT22;370;48.810;9.150;2023-12-14T16:11:22;8.10;33.20
774;DHT22;370;48.810;9.150;2023-12-14T16:13:49;8.10;35.00
774;DHT22;370;48.810;9.150;2023-12-14T16:19:40;8.20;41.20
774;DHT22;370;48.810;9.150;2023-12-14T16:22:07;8.20;36.80
774;DHT22;370;48.810;9.150;2023-12-14T16:24:34;8.20;36.60
774;DHT22;370;48.810;9.150;2023-12-14T16:27:01;8.10;35.00
774;DHT22;370;48.810;9.150;2023-12-14T16:29:28;8.00;36.30
774;DHT22;370;48.810;9.150;2023-12-14T16:31:54;8.00;37.40
774;DHT22;370;48.810;9.150;2023-12-14T16:34:21;8.00;37.40
774;DHT22;370;48.810;9.150;2023-12-14T16:36:49;8.00;36.30
774;DHT22;370;48.810;9.150;2023-12-14T16:39:16;8.00;38.20
774;DHT22;370;48.810;9.150;2023-12-14T16:41:43;8.20;37.40
774;DHT22;370;48.810;9.150;2023-12-14T16:44:09;8.20;34.90
774;DHT22;370;48.810;9.150;2023-12-14T16:46:36;8.30;32.40
774;DHT22;370;48.810;9.150;2023-12-14T16:49:03;8.40;31.30
774;DHT22;370;48.810;9.150;2023-12-14T16:51:30;8.50;30.10
774;DHT22;370;48.810;9.150;2023-12-14T16:53:58;8.40;30.10
774;DHT22;370;48.810;9.150;2023-12-14T16:56:28;8.40;32.40
774;DHT22;370;48.810;9.150;2023-12-14T16:58:55;8.40;35.20
774;DHT22;370;48.810;9.150;2023-12-14T17:01:22;8.30;36.10
774;DHT22;370;48.810;9.150;2023-12-14T17:03:49;8.30;38.00
774;DHT22;370;48.810;9.150;2023-12-14T17:06:16;8.30;40.20
774;DHT22;370;48.810;9.150;2023-12-14T17:08:43;8.20;41.00
774;DHT22;370;48.810;9.150;2023-12-14T17:11:12;8.20;32.40
774;DHT22;370;48.810;9.150;2023-12-14T17:13:38;8.00;34.30